Time,TemperatureF,DewpointF,PressureIn,WindDirection,WindDirectionDegrees,WindSpeedMPH,WindSpeedGustMPH,Humidity,HourlyPrecipIn,Conditions,Clouds,dailyrainin,SoftwareType,DateUTC
2013-02-13 00:03:00,52.9,52.6,29.76,WNW,292,3.1,-999.0,99,-99.99,,,0.00,Acu-Link.com,2013-02-13 06:03:00,
2013-02-13 00:18:00,52.7,52.4,29.75,WNW,292,3.1,-999.0,99,-99.99,,,0.00,Acu-Link.com,2013-02-13 06:18:00,
2013-02-13 00:33:00,52.7,52.4,29.76,WNW,292,5.1,-999.0,99,-99.99,,,0.00,Acu-Link.com,2013-02-13 06:33:00,
2013-02-13 00:49:00,52.7,52.4,29.77,WSW,247,2.2,-999.0,99,-99.99,,,0.00,Acu-Link.com,2013-02-13 06:49:00,
2013-02-13 01:04:00,52.7,52.2,29.78,West,270,6.3,-999.0,98,-99.99,,,0.00,Acu-Link.com,2013-02-13 07:04:00,
2013-02-13 01:19:00,52.7,51.9,29.77,West,270,5.8,-999.0,97,-99.99,,,0.00,Acu-Link.com,2013-02-13 07:19:00,
2013-02-13 01:35:00,52.7,51.9,29.79,WSW,247,5.1,-999.0,97,-99.99,,,0.00,Acu-Link.com,2013-02-13 07:35:00,
2013-02-13 01:50:00,52.7,51.6,29.81,West,270,4.7,-999.0,96,-99.99,,,0.00,Acu-Link.com,2013-02-13 07:50:00,
2013-02-13 02:05:00,52.7,51.3,29.80,West,270,8.3,-999.0,95,-99.99,,,0.00,Acu-Link.com,2013-02-13 08:05:00,
2013-02-13 02:20:00,52.7,50.4,29.80,West,270,5.8,-999.0,92,-99.99,,,0.00,Acu-Link.com,2013-02-13 08:20:00,
2013-02-13 02:36:00,52.7,50.1,29.80,West,270,3.8,-999.0,91,-99.99,,,0.00,Acu-Link.com,2013-02-13 08:36:00,
2013-02-13 02:51:00,52.3,50.4,29.81,WNW,292,3.1,-999.0,93,-99.99,,,0.00,Acu-Link.com,2013-02-13 08:51:00,
2013-02-13 03:16:00,52.2,50.5,29.80,WNW,292,2.2,-999.0,94,-99.99,,,0.00,Acu-Link.com,2013-02-13 09:16:00,
2013-02-13 03:31:00,52.0,50.9,29.82,SW,225,4.7,-999.0,96,-99.99,,,0.00,Acu-Link.com,2013-02-13 09:31:00,
2013-02-13 03:46:00,52.0,49.7,29.82,WNW,292,8.3,-999.0,92,-99.99,,,0.00,Acu-Link.com,2013-02-13 09:46:00,
2013-02-13 04:01:00,51.4,48.6,29.82,West,270,5.1,-999.0,90,-99.99,,,0.00,Acu-Link.com,2013-02-13 10:01:00,
2013-02-13 04:16:00,50.9,48.4,29.82,NW,315,6.7,-999.0,91,-99.99,,,0.00,Acu-Link.com,2013-02-13 10:16:00,
2013-02-13 04:31:00,50.7,48.2,29.82,WNW,292,11.0,-999.0,91,-99.99,,,0.00,Acu-Link.com,2013-02-13 10:31:00,
2013-02-13 04:47:00,50.2,47.7,29.82,NW,315,12.5,-999.0,91,-99.99,,,0.00,Acu-Link.com,2013-02-13 10:47:00,
2013-02-13 05:02:00,49.5,47.2,29.82,West,270,9.4,-999.0,92,-99.99,,,0.01,Acu-Link.com,2013-02-13 11:02:00,
2013-02-13 05:17:00,48.7,47.1,29.83,WNW,292,8.9,-999.0,94,-99.99,,,0.05,Acu-Link.com,2013-02-13 11:17:00,
2013-02-13 05:32:00,48.4,47.0,29.81,NW,315,3.8,-999.0,95,-99.99,,,0.07,Acu-Link.com,2013-02-13 11:32:00,
2013-02-13 05:48:00,48.2,46.3,29.83,NW,315,8.3,-999.0,93,-99.99,,,0.07,Acu-Link.com,2013-02-13 11:48:00,
2013-02-13 06:03:00,48.4,45.9,29.83,NNW,337,11.9,-999.0,91,-99.99,,,0.07,Acu-Link.com,2013-02-13 12:03:00,
2013-02-13 06:18:00,48.4,45.3,29.85,WNW,292,11.4,-999.0,89,-99.99,,,0.07,Acu-Link.com,2013-02-13 12:18:00,
2013-02-13 06:33:00,48.4,45.6,29.84,WNW,292,7.8,-999.0,90,-99.99,,,0.07,Acu-Link.com,2013-02-13 12:33:00,
2013-02-13 06:48:00,48.0,45.2,29.87,West,270,7.4,-999.0,90,-99.99,,,0.07,Acu-Link.com,2013-02-13 12:48:00,
2013-02-13 07:04:00,48.0,45.2,29.86,WNW,292,6.7,-999.0,90,-99.99,,,0.07,Acu-Link.com,2013-02-13 13:04:00,
2013-02-13 07:19:00,48.0,45.2,29.88,West,270,8.3,-999.0,90,-99.99,,,0.07,Acu-Link.com,2013-02-13 13:19:00,
2013-02-13 07:34:00,47.7,44.9,29.90,WNW,292,5.1,-999.0,90,-99.99,,,0.07,Acu-Link.com,2013-02-13 13:34:00,
2013-02-13 07:49:00,47.7,44.9,29.90,NW,315,5.8,-999.0,90,-99.99,,,0.07,Acu-Link.com,2013-02-13 13:49:00,
2013-02-13 08:05:00,47.7,44.6,29.92,WNW,292,3.8,-999.0,89,-99.99,,,0.07,Acu-Link.com,2013-02-13 14:05:00,
2013-02-13 08:20:00,47.8,44.5,29.93,West,270,7.8,-999.0,88,-99.99,,,0.07,Acu-Link.com,2013-02-13 14:20:00,
2013-02-13 08:35:00,47.8,44.2,29.91,NNW,337,7.8,-999.0,87,-99.99,,,0.07,Acu-Link.com,2013-02-13 14:35:00,
2013-02-13 08:50:00,48.2,44.2,29.91,NW,315,6.7,-999.0,86,-99.99,,,0.07,Acu-Link.com,2013-02-13 14:50:00,
2013-02-13 09:06:00,48.4,44.4,29.92,NNE,22,7.8,-999.0,86,-99.99,,,0.07,Acu-Link.com,2013-02-13 15:06:00,
2013-02-13 09:21:00,48.7,44.4,29.89,NNW,337,10.3,-999.0,85,-99.99,,,0.07,Acu-Link.com,2013-02-13 15:21:00,
2013-02-13 09:36:00,49.3,44.3,29.88,NW,315,10.3,-999.0,83,-99.99,,,0.07,Acu-Link.com,2013-02-13 15:36:00,
2013-02-13 09:51:00,49.6,44.4,29.90,North,0,17.0,-999.0,82,-99.99,,,0.07,Acu-Link.com,2013-02-13 15:51:00,
2013-02-13 10:07:00,50.7,45.1,29.89,NW,315,13.0,-999.0,81,-99.99,,,0.07,Acu-Link.com,2013-02-13 16:07:00,
2013-02-13 10:22:00,50.7,43.4,29.90,WNW,292,15.4,-999.0,76,-99.99,,,0.07,Acu-Link.com,2013-02-13 16:22:00,
2013-02-13 10:37:00,50.9,42.9,29.90,NNW,337,14.1,-999.0,74,-99.99,,,0.07,Acu-Link.com,2013-02-13 16:37:00,
2013-02-13 10:53:00,52.5,44.8,29.89,NNW,337,14.5,-999.0,75,-99.99,,,0.07,Acu-Link.com,2013-02-13 16:53:00,
2013-02-13 11:08:00,53.1,44.6,29.89,WNW,292,16.1,-999.0,73,-99.99,,,0.07,Acu-Link.com,2013-02-13 17:08:00,
2013-02-13 11:23:00,53.6,45.5,29.89,WNW,292,7.4,-999.0,74,-99.99,,,0.07,Acu-Link.com,2013-02-13 17:23:00,
2013-02-13 11:39:00,54.9,46.4,29.89,East,90,13.0,-999.0,73,-99.99,,,0.07,Acu-Link.com,2013-02-13 17:39:00,
2013-02-13 11:54:00,54.7,44.7,29.88,NW,315,11.9,-999.0,69,-99.99,,,0.07,Acu-Link.com,2013-02-13 17:54:00,
2013-02-13 12:09:00,55.4,46.2,29.88,NNE,22,9.4,-999.0,71,-99.99,,,0.07,Acu-Link.com,2013-02-13 18:09:00,
2013-02-13 12:24:00,55.9,45.9,29.87,NNW,337,6.7,-999.0,69,-99.99,,,0.07,Acu-Link.com,2013-02-13 18:24:00,
2013-02-13 12:39:00,56.1,44.5,29.87,NNW,337,8.9,-999.0,65,-99.99,,,0.07,Acu-Link.com,2013-02-13 18:39:00,
2013-02-13 12:55:00,57.2,46.3,29.88,ENE,67,5.1,-999.0,67,-99.99,,,0.07,Acu-Link.com,2013-02-13 18:55:00,
2013-02-13 13:10:00,57.4,45.7,29.87,NNE,22,10.3,-999.0,65,-99.99,,,0.07,Acu-Link.com,2013-02-13 19:10:00,
2013-02-13 13:25:00,58.1,44.3,29.86,WNW,292,9.4,-999.0,60,-99.99,,,0.07,Acu-Link.com,2013-02-13 19:25:00,
2013-02-13 13:40:00,57.7,44.8,29.86,NNW,337,8.9,-999.0,62,-99.99,,,0.07,Acu-Link.com,2013-02-13 19:40:00,
2013-02-13 13:56:00,58.1,45.6,29.86,North,0,5.8,-999.0,63,-99.99,,,0.07,Acu-Link.com,2013-02-13 19:56:00,
2013-02-13 14:11:00,58.6,45.2,29.86,NW,315,8.3,-999.0,61,-99.99,,,0.07,Acu-Link.com,2013-02-13 20:11:00,
2013-02-13 14:26:00,58.8,45.0,29.85,NNW,337,11.0,-999.0,60,-99.99,,,0.07,Acu-Link.com,2013-02-13 20:26:00,
2013-02-13 14:42:00,58.6,44.8,29.85,North,0,6.3,-999.0,60,-99.99,,,0.07,Acu-Link.com,2013-02-13 20:42:00,
2013-02-13 14:57:00,58.5,43.7,29.85,NNW,337,10.3,-999.0,58,-99.99,,,0.07,Acu-Link.com,2013-02-13 20:57:00,
2013-02-13 15:12:00,58.6,44.4,29.85,North,0,9.4,-999.0,59,-99.99,,,0.07,Acu-Link.com,2013-02-13 21:12:00,
2013-02-13 15:27:00,58.5,45.1,29.85,NNW,337,9.8,-999.0,61,-99.99,,,0.07,Acu-Link.com,2013-02-13 21:27:00,
2013-02-13 15:42:00,57.9,43.2,29.86,NNW,337,5.1,-999.0,58,-99.99,,,0.07,Acu-Link.com,2013-02-13 21:42:00,
2013-02-13 15:58:00,58.6,45.7,29.86,NNW,337,6.7,-999.0,62,-99.99,,,0.07,Acu-Link.com,2013-02-13 21:58:00,
2013-02-13 16:13:00,58.6,43.9,29.86,WNW,292,9.4,-999.0,58,-99.99,,,0.07,Acu-Link.com,2013-02-13 22:13:00,
2013-02-13 16:28:00,57.7,44.8,29.86,NNW,337,9.8,-999.0,62,-99.99,,,0.07,Acu-Link.com,2013-02-13 22:28:00,
2013-02-13 16:44:00,57.7,43.9,29.86,North,0,6.7,-999.0,60,-99.99,,,0.07,Acu-Link.com,2013-02-13 22:44:00,
2013-02-13 16:59:00,57.0,43.3,29.87,NNW,337,7.8,-999.0,60,-99.99,,,0.07,Acu-Link.com,2013-02-13 22:59:00,
2013-02-13 17:14:00,55.9,43.9,29.87,NNE,22,4.3,-999.0,64,-99.99,,,0.07,Acu-Link.com,2013-02-13 23:14:00,
2013-02-13 17:29:00,55.8,42.1,29.87,ENE,67,5.8,-999.0,60,-99.99,,,0.07,Acu-Link.com,2013-02-13 23:29:00,
2013-02-13 17:45:00,54.9,42.5,29.88,West,270,4.7,-999.0,63,-99.99,,,0.07,Acu-Link.com,2013-02-13 23:45:00,
2013-02-13 18:00:00,52.7,42.8,29.89,NNE,22,3.8,-999.0,69,-99.99,,,0.07,Acu-Link.com,2013-02-14 00:00:00,
2013-02-13 18:15:00,51.4,42.0,29.89,North,0,4.3,-999.0,70,-99.99,,,0.07,Acu-Link.com,2013-02-14 00:15:00,
2013-02-13 18:31:00,50.7,42.7,29.90,North,0,4.3,-999.0,74,-99.99,,,0.07,Acu-Link.com,2013-02-14 00:31:00,
2013-02-13 18:46:00,49.8,42.6,29.89,NE,45,3.1,-999.0,76,-99.99,,,0.07,Acu-Link.com,2013-02-14 00:46:00,
2013-02-13 19:01:00,48.7,42.9,29.91,North,0,5.1,-999.0,80,-99.99,,,0.07,Acu-Link.com,2013-02-14 01:01:00,
2013-02-13 19:16:00,48.2,42.6,29.91,NNE,22,3.1,-999.0,81,-99.99,,,0.07,Acu-Link.com,2013-02-14 01:16:00,
2013-02-13 19:32:00,47.8,42.3,29.91,NNE,22,4.7,-999.0,81,-99.99,,,0.07,Acu-Link.com,2013-02-14 01:32:00,
2013-02-13 19:47:00,47.3,42.4,29.91,NNE,22,3.8,-999.0,83,-99.99,,,0.07,Acu-Link.com,2013-02-14 01:47:00,
2013-02-13 20:02:00,46.8,42.2,29.92,NNE,22,2.7,-999.0,84,-99.99,,,0.07,Acu-Link.com,2013-02-14 02:02:00,
2013-02-13 20:17:00,46.6,41.7,29.93,NNE,22,2.7,-999.0,83,-99.99,,,0.07,Acu-Link.com,2013-02-14 02:17:00,
2013-02-13 20:32:00,46.0,41.5,29.93,NE,45,2.2,-999.0,84,-99.99,,,0.07,Acu-Link.com,2013-02-14 02:32:00,
2013-02-13 20:48:00,45.3,41.4,29.93,WSW,247,3.1,-999.0,86,-99.99,,,0.07,Acu-Link.com,2013-02-14 02:48:00,
2013-02-13 21:03:00,45.1,41.2,29.93,NE,45,2.2,-999.0,86,-99.99,,,0.07,Acu-Link.com,2013-02-14 03:03:00,
2013-02-13 21:18:00,45.0,41.0,29.93,NE,45,2.7,-999.0,86,-99.99,,,0.07,Acu-Link.com,2013-02-14 03:18:00,
2013-02-13 21:34:00,44.6,41.3,29.93,WNW,292,3.1,-999.0,88,-99.99,,,0.07,Acu-Link.com,2013-02-14 03:34:00,
2013-02-13 21:49:00,44.2,40.9,29.94,North,0,4.3,-999.0,88,-99.99,,,0.07,Acu-Link.com,2013-02-14 03:49:00,
2013-02-13 22:10:00,44.2,40.9,29.94,NNE,22,4.3,-999.0,88,-99.99,,,0.07,Acu-Link.com,2013-02-14 04:10:00,
2013-02-13 22:25:00,43.9,40.9,29.94,NE,45,3.8,-999.0,89,-99.99,,,0.07,Acu-Link.com,2013-02-14 04:25:00,
2013-02-13 22:41:00,43.5,40.8,29.94,North,0,2.7,-999.0,90,-99.99,,,0.07,Acu-Link.com,2013-02-14 04:41:00,
2013-02-13 22:56:00,43.2,40.7,29.94,NW,315,4.3,-999.0,91,-99.99,,,0.07,Acu-Link.com,2013-02-14 04:56:00,
2013-02-13 23:11:00,43.0,40.5,29.94,NW,315,2.7,-999.0,91,-99.99,,,0.07,Acu-Link.com,2013-02-14 05:11:00,
2013-02-13 23:26:00,42.3,40.4,29.93,NNE,22,0.0,-999.0,93,-99.99,,,0.07,Acu-Link.com,2013-02-14 05:26:00,
2013-02-13 23:42:00,41.9,40.3,29.93,NNE,22,0.0,-999.0,94,-99.99,,,0.07,Acu-Link.com,2013-02-14 05:42:00,
2013-02-13 23:57:00,41.0,39.7,29.94,NNW,337,1.6,-999.0,95,-99.99,,,0.07,Acu-Link.com,2013-02-14 05:57:00,